Time;durP1;ratioP1;P1;durP2;ratioP2;P2;SDS_P1;SDS_P2;PMS_P1;PMS_P2;Temp;Humidity;BMP_temperature;BMP_pressure;BME280_temperature;BME280_humidity;BME280_pressure;Samples;Min_cycle;Max_cycle;Signal;HPM_P1;HPM_P2
2021/05/31 00:02:08;;;;;;;21.65;13.55;;;;;;;9.28;86.33;98576.53;1780101;79;21159;-77
2021/05/31 00:04:34;;;;;;;19.15;13.05;;;;;;;9.26;86.11;98572.47;1761723;81;20970;-77
2021/05/31 00:07:13;;;;;;;18.30;12.63;;;;;;;9.18;85.95;98574.28;1780610;80;20855;-77
2021/05/31 00:09:39;;;;;;;;;;;;;;;9.13;87.59;98577.74;1764317;81;21001;-76
2021/05/31 00:12:09;;;;;;;20.72;12.18;;;;;;;9.15;88.56;98571.56;1759506;81;20277;-76
2021/05/31 00:14:34;;;;;;;;;;;;;;;9.19;87.95;98575.91;1764238;81;20986;-76
2021/05/31 00:17:01;;;;;;;20.43;11.68;;;;;;;9.22;87.64;98573.50;1749571;81;20220;-76
2021/05/31 00:19:27;;;;;;;18.98;13.25;;;;;;;9.22;87.46;98571.33;1780237;79;20919;-76
2021/05/31 00:21:53;;;;;;;22.73;13.22;;;;;;;9.24;87.62;98572.73;1780389;80;21018;-76
2021/05/31 00:24:20;;;;;;;14.85;11.30;;;;;;;9.24;86.76;98570.56;1780536;79;20943;-76
2021/05/31 00:26:46;;;;;;;17.52;11.50;;;;;;;9.20;86.54;98568.89;1756060;80;20989;-76
2021/05/31 00:29:12;;;;;;;15.60;11.20;;;;;;;9.18;87.15;98572.94;1780303;79;20992;-76
2021/05/31 00:31:38;;;;;;;15.88;11.30;;;;;;;9.21;87.01;98568.36;1736407;81;20934;-76
2021/05/31 00:34:04;;;;;;;16.60;9.80;;;;;;;9.20;86.83;98564.84;1780324;79;21483;-76
2021/05/31 00:36:30;;;;;;;17.05;9.93;;;;;;;9.19;86.42;98561.86;1731735;82;20964;-76
2021/05/31 00:38:56;;;;;;;13.55;9.80;;;;;;;9.17;86.56;98564.01;1780368;79;21097;-76
2021/05/31 00:41:23;;;;;;;15.58;10.60;;;;;;;9.16;86.73;98557.52;1761888;81;20980;-76
2021/05/31 00:43:50;;;;;;;13.65;10.55;;;;;;;9.13;86.53;98557.47;1780365;80;20991;-76
2021/05/31 00:46:16;;;;;;;15.15;10.38;;;;;;;9.14;86.79;98553.69;1736213;81;21033;-76
2021/05/31 00:48:42;;;;;;;14.23;10.65;;;;;;;9.16;86.79;98560.22;1780439;79;20923;-76
2021/05/31 00:51:09;;;;;;;14.60;10.68;;;;;;;9.16;87.43;98560.22;1735929;81;21901;-76
2021/05/31 00:53:35;;;;;;;17.92;10.82;;;;;;;9.14;87.46;98556.39;1756053;80;20936;-76
2021/05/31 00:56:02;;;;;;;17.32;10.25;;;;;;;9.14;88.02;98555.04;1761870;81;21048;-76
2021/05/31 00:58:28;;;;;;;17.62;11.33;;;;;;;9.10;87.59;98556.64;1780367;79;21440;-76
2021/05/31 01:00:56;;;;;;;13.35;10.88;;;;;;;9.09;87.10;98552.31;1761703;81;20959;-76
2021/05/31 01:03:23;;;;;;;18.55;12.00;;;;;;;9.07;86.62;98548.24;1780614;79;21446;-76
2021/05/31 01:05:49;;;;;;;15.75;10.25;;;;;;;9.02;86.59;98545.76;1761608;81;21005;-76
2021/05/31 01:08:48;;;;;;;17.37;11.45;;;;;;;8.97;86.24;98546.23;1780356;79;21356;-76
2021/05/31 01:11:52;;;;;;;;;;;;;;;8.91;86.26;98544.04;1764415;81;21025;-77
2021/05/31 01:14:26;;;;;;;17.85;10.98;;;;;;;8.83;86.32;98540.98;1736131;81;20206;-76
2021/05/31 01:17:04;;;;;;;17.80;11.63;;;;;;;8.76;86.54;98537.95;1736368;81;21138;-76
2021/05/31 01:19:51;;;;;;;22.77;13.62;;;;;;;8.72;86.34;98540.08;1780851;80;21002;-77
2021/05/31 01:22:19;;;;;;;21.17;13.03;;;;;;;8.68;87.66;98538.40;1784726;79;20847;-77
2021/05/31 01:24:51;;;;;;;18.95;13.18;;;;;;;8.66;86.45;98539.73;1756968;80;21046;-77
2021/05/31 01:27:23;;;;;;;18.25;12.73;;;;;;;8.64;86.88;98542.70;1782122;79;20931;-77
2021/05/31 01:30:03;;;;;;;16.62;12.18;;;;;;;8.64;86.74;98539.99;1784810;80;21073;-77
2021/05/31 01:32:34;;;;;;;19.02;12.30;;;;;;;8.60;86.40;98537.50;1781994;79;21391;-77
2021/05/31 01:35:03;;;;;;;21.50;12.58;;;;;;;8.56;86.59;98535.58;1784819;80;21015;-77
2021/05/31 01:37:29;;;;;;;18.35;12.40;;;;;;;8.56;86.54;98536.39;1784809;79;20947;-77
2021/05/31 01:39:56;;;;;;;18.90;12.53;;;;;;;8.53;86.56;98531.48;1784685;80;21074;-77
2021/05/31 01:42:23;;;;;;;22.73;15.00;;;;;;;8.52;86.55;98535.80;1756644;79;21482;-77
2021/05/31 01:44:49;;;;;;;20.08;13.18;;;;;;;8.49;86.97;98534.42;1731418;80;20955;-77
2021/05/31 01:47:15;;;;;;;21.97;13.15;;;;;;;8.47;86.74;98534.68;1784716;79;20964;-77
2021/05/31 01:49:41;;;;;;;24.20;15.20;;;;;;;8.43;86.76;98537.59;1784835;80;20967;-77
2021/05/31 01:52:07;;;;;;;25.57;15.35;;;;;;;8.41;86.64;98534.87;1731306;79;20836;-77
2021/05/31 01:54:33;;;;;;;19.40;12.65;;;;;;;8.41;87.30;98537.03;1784893;80;21121;-77
2021/05/31 01:57:00;;;;;;;21.00;13.20;;;;;;;8.40;88.58;98532.70;1784698;80;21503;-77
2021/05/31 01:59:26;;;;;;;19.42;12.20;;;;;;;8.46;87.49;98539.80;1784706;79;20907;-77
2021/05/31 02:01:53;;;;;;;26.42;14.28;;;;;;;8.45;87.03;98542.73;1756275;80;20998;-77
2021/05/31 02:04:19;;;;;;;19.32;14.13;;;;;;;8.46;87.44;98532.23;1784765;79;21347;-77
2021/05/31 02:06:45;;;;;;;18.82;12.13;;;;;;;8.47;86.98;98536.03;1784592;80;21075;-77
2021/05/31 02:09:11;;;;;;;18.17;12.80;;;;;;;8.44;87.21;98534.35;1784671;79;20872;-77
2021/05/31 02:12:08;;;;;;;27.73;14.90;;;;;;;8.40;87.95;98531.89;1731366;80;20951;-77
2021/05/31 02:14:57;;;;;;;20.45;12.93;;;;;;;8.39;87.87;98528.38;1784834;80;21482;-77
2021/05/31 02:17:54;;;;;;;25.25;16.00;;;;;;;8.40;86.95;98529.19;1785006;79;21019;-77
2021/05/31 02:20:21;;;;;;;27.98;13.43;;;;;;;8.31;87.46;98528.80;1757891;80;21074;-77
2021/05/31 02:22:53;;;;;;;23.60;13.35;;;;;;;8.22;86.62;98521.39;1788189;78;20990;-77
2021/05/31 02:25:19;;;;;;;17.77;12.60;;;;;;;8.16;86.60;98524.55;1764392;80;20959;-77
2021/05/31 02:27:47;;;;;;;19.17;12.75;;;;;;;8.10;86.87;98520.97;1788297;78;21023;-77
2021/05/31 02:30:14;;;;;;;17.02;10.82;;;;;;;8.09;86.71;98523.92;1788801;80;20983;-77
2021/05/31 02:32:54;;;;;;;22.02;12.70;;;;;;;8.06;86.72;98523.09;1788146;78;20985;-77
2021/05/31 02:35:21;;;;;;;17.67;11.90;;;;;;;8.10;86.92;98525.02;1788186;80;21027;-76
2021/05/31 02:37:47;;;;;;;17.07;11.33;;;;;;;8.09;87.16;98527.97;1788279;78;21014;-76
2021/05/31 02:40:14;;;;;;;21.07;12.53;;;;;;;8.12;87.26;98524.25;1788415;80;20911;-76
2021/05/31 02:42:43;;;;;;;19.77;13.20;;;;;;;8.10;87.13;98524.20;1788340;78;20951;-76
2021/05/31 02:45:10;;;;;;;15.18;10.90;;;;;;;8.08;87.98;98525.80;1788446;80;21239;-76
2021/05/31 02:47:37;;;;;;;16.42;11.08;;;;;;;8.10;87.47;98529.06;1788293;78;20939;-77
2021/05/31 02:50:05;;;;;;;15.35;10.18;;;;;;;8.10;87.46;98525.02;1788364;80;21526;-77
2021/05/31 02:52:31;;;;;;;22.15;11.05;;;;;;;8.04;87.31;98532.79;1788618;78;20997;-77
2021/05/31 02:54:57;;;;;;;16.60;10.20;;;;;;;8.07;87.43;98531.46;1788215;80;20919;-77
2021/05/31 02:57:23;;;;;;;17.05;11.35;;;;;;;8.10;87.84;98530.41;1788225;78;20972;-77
2021/05/31 02:59:51;;;;;;;20.05;11.97;;;;;;;8.10;87.96;98527.72;1788140;80;20957;-77
2021/05/31 03:02:17;;;;;;;18.52;10.75;;;;;;;8.15;87.82;98522.39;1788251;78;20994;-77
2021/05/31 03:04:43;;;;;;;20.65;14.03;;;;;;;8.17;87.69;98520.25;1788367;80;20848;-77
2021/05/31 03:07:09;;;;;;;16.75;12.33;;;;;;;8.22;87.96;98520.05;1788148;78;21054;-77
2021/05/31 03:09:35;;;;;;;19.57;11.83;;;;;;;8.29;88.00;98523.34;1788338;80;21275;-77
2021/05/31 03:12:01;;;;;;;15.72;10.18;;;;;;;8.35;88.37;98531.82;1788340;80;20903;-77
2021/05/31 03:14:27;;;;;;;14.58;9.90;;;;;;;8.38;87.61;98524.05;1788289;78;20951;-77
2021/05/31 03:16:53;;;;;;;20.10;11.30;;;;;;;8.38;87.58;98525.94;1788319;80;21102;-77
2021/05/31 03:19:19;;;;;;;16.93;10.15;;;;;;;8.29;87.42;98526.89;1788419;78;20941;-77
2021/05/31 03:21:45;;;;;;;21.10;11.03;;;;;;;8.26;87.49;98524.67;1782211;80;20884;-77
2021/05/31 03:24:11;;;;;;;17.35;10.43;;;;;;;8.30;87.63;98525.00;1780102;79;21792;-77
2021/05/31 03:26:37;;;;;;;22.95;13.20;;;;;;;8.23;87.64;98524.38;1756058;80;20955;-77
2021/05/31 03:29:03;;;;;;;26.10;14.28;;;;;;;8.27;87.69;98524.95;1780127;79;20872;-77
2021/05/31 03:31:29;;;;;;;18.02;12.15;;;;;;;8.25;88.19;98525.74;1780190;80;21018;-77
2021/05/31 03:33:55;;;;;;;21.62;11.78;;;;;;;8.28;88.20;98529.81;1761666;81;21124;-77
2021/05/31 03:36:21;;;;;;;23.20;11.88;;;;;;;8.35;88.42;98524.53;1780131;80;20888;-77
2021/05/31 03:38:47;;;;;;;22.70;11.38;;;;;;;8.41;88.57;98522.18;1735835;81;20842;-77
2021/05/31 03:41:13;;;;;;;22.05;12.53;;;;;;;8.49;88.71;98520.92;1780293;80;21494;-77
2021/05/31 03:43:39;;;;;;;17.27;12.45;;;;;;;8.53;88.34;98524.73;1731318;81;21015;-77
2021/05/31 03:46:05;;;;;;;18.23;12.13;;;;;;;8.57;88.91;98524.52;1780118;80;20872;-77
2021/05/31 03:48:31;;;;;;;26.62;15.88;;;;;;;8.57;89.25;98521.00;1761645;81;20874;-77
2021/05/31 03:51:10;;;;;;;20.77;13.88;;;;;;;8.63;89.23;98533.47;1780478;80;20911;-77
2021/05/31 03:53:38;;;;;;;21.00;13.32;;;;;;;8.67;88.55;98524.62;1761866;81;20909;-77
2021/05/31 03:56:05;;;;;;;15.48;10.95;;;;;;;8.69;88.43;98529.22;1756315;80;20990;-77
2021/05/31 03:58:31;;;;;;;19.20;11.28;;;;;;;8.73;87.96;98529.01;1761786;81;21097;-77
2021/05/31 04:00:58;;;;;;;17.90;9.78;;;;;;;8.77;88.07;98523.89;1780233;80;21078;-77
2021/05/31 04:03:25;;;;;;;16.87;10.03;;;;;;;8.81;87.48;98528.27;1761773;81;20984;-77
2021/05/31 04:06:02;;;;;;;13.35;9.93;;;;;;;8.80;87.28;98526.61;1780435;80;21503;-77
2021/05/31 04:13:49;;;;;;;17.57;10.38;;;;;;;8.91;87.74;98526.47;1735846;81;21354;-77
2021/05/31 04:16:15;;;;;;;17.67;10.08;;;;;;;8.93;87.71;98524.86;1780288;80;20943;-77
2021/05/31 04:18:41;;;;;;;14.15;9.28;;;;;;;8.91;87.52;98522.95;1762112;81;20826;-77
2021/05/31 04:21:07;;;;;;;15.00;8.83;;;;;;;8.92;86.84;98523.23;1780468;80;20939;-77
2021/05/31 04:23:33;;;;;;;14.03;10.58;;;;;;;8.89;86.69;98519.16;1756008;80;21886;-77
2021/05/31 04:25:59;;;;;;;14.58;10.93;;;;;;;8.91;86.76;98517.02;1780351;80;21039;-77
2021/05/31 04:28:25;;;;;;;26.50;11.22;;;;;;;8.95;86.79;98521.36;1780386;79;20927;-77
2021/05/31 04:30:51;;;;;;;16.50;10.68;;;;;;;9.00;86.62;98522.23;1761785;81;20905;-77
2021/05/31 04:33:17;;;;;;;19.42;11.43;;;;;;;9.07;86.99;98527.42;1780330;79;20942;-77
2021/05/31 04:35:43;;;;;;;15.03;9.00;;;;;;;9.18;86.72;98517.50;1761858;81;21258;-77
2021/05/31 04:38:09;;;;;;;14.43;10.80;;;;;;;9.19;86.36;98518.59;1736121;81;20862;-77
2021/05/31 04:40:35;;;;;;;24.57;10.38;;;;;;;9.17;86.38;98526.69;1756124;80;21019;-77
2021/05/31 04:43:01;;;;;;;21.93;11.18;;;;;;;9.25;86.79;98523.52;1761833;81;20929;-77
2021/05/31 04:45:27;;;;;;;15.25;10.48;;;;;;;9.32;86.83;98524.12;1780417;80;20903;-77
2021/05/31 04:47:53;;;;;;;22.67;10.90;;;;;;;9.39;86.77;98517.92;1761782;81;21507;-77
2021/05/31 04:50:20;;;;;;;16.32;10.95;;;;;;;9.50;86.28;98514.23;1780187;80;21509;-77
2021/05/31 04:52:45;;;;;;;20.62;11.60;;;;;;;9.53;85.86;98521.00;1761641;81;21029;-77
2021/05/31 04:55:18;;;;;;;19.00;10.82;;;;;;;9.58;85.89;98518.34;1761966;81;21028;-77
2021/05/31 04:57:45;;;;;;;22.07;11.88;;;;;;;9.77;86.02;98511.95;1781822;79;21014;-76
2021/05/31 05:00:14;;;;;;;15.10;11.12;;;;;;;9.81;85.46;98511.15;1761962;81;21606;-76
2021/05/31 05:02:40;;;;;;;19.52;12.95;;;;;;;9.81;85.46;98511.15;1780795;79;21356;-76
2021/05/31 05:05:08;;;;;;;22.58;11.57;;;;;;;9.91;85.14;98523.92;1761671;81;20862;-76
2021/05/31 05:07:34;;;;;;;17.40;9.73;;;;;;;9.95;85.02;98523.69;1780887;79;21372;-76
2021/05/31 05:10:00;;;;;;;15.28;10.25;;;;;;;10.04;84.91;98521.29;1731598;82;21021;-76
2021/05/31 05:12:26;;;;;;;16.42;10.65;;;;;;;10.11;84.79;98517.27;1780317;79;21677;-76
2021/05/31 05:14:52;;;;;;;16.42;10.85;;;;;;;10.15;84.45;98510.77;1761633;81;21544;-76
2021/05/31 05:17:18;;;;;;;15.38;10.50;;;;;;;10.15;84.45;98510.77;1780343;79;21522;-76
2021/05/31 05:19:44;;;;;;;16.12;9.85;;;;;;;10.28;84.49;98518.99;1761671;81;21518;-76
2021/05/31 05:22:10;;;;;;;18.55;9.98;;;;;;;10.47;84.47;98521.48;1780148;79;20876;-76
2021/05/31 05:24:36;;;;;;;13.40;10.65;;;;;;;10.64;84.10;98524.78;1780354;80;21108;-76
2021/05/31 05:27:05;;;;;;;18.42;11.63;;;;;;;10.76;84.24;98524.52;1780722;80;20895;-75
2021/05/31 05:29:31;;;;;;;17.80;11.38;;;;;;;11.11;84.05;98523.77;1755730;80;21019;-75
2021/05/31 05:31:59;;;;;;;19.67;11.18;;;;;;;11.41;83.36;98521.58;1780452;80;21510;-75
2021/05/31 05:34:25;;;;;;;15.00;10.13;;;;;;;11.63;82.57;98513.70;1780490;79;20849;-76
2021/05/31 05:36:56;;;;;;;20.95;10.35;;;;;;;11.78;81.92;98515.81;1780467;80;21001;-76
2021/05/31 05:39:37;;;;;;;20.97;11.70;;;;;;;11.82;81.14;98507.98;1780001;79;20940;-76
2021/05/31 05:49:40;;;;;;;16.48;11.70;;;;;;;12.25;78.69;98503.75;1780362;80;21502;-76
2021/05/31 05:52:08;;;;;;;19.87;12.37;;;;;;;12.49;78.65;98505.81;1761659;81;21504;-76
2021/05/31 05:54:34;;;;;;;16.13;11.73;;;;;;;12.63;78.70;98510.33;1705386;83;20949;-76
2021/05/31 05:57:00;;;;;;;33.70;14.60;;;;;;;12.73;76.68;98505.92;1761835;81;20909;-76
2021/05/31 05:59:26;;;;;;;15.15;12.35;;;;;;;12.95;77.97;98507.69;1780393;79;20868;-76
2021/05/31 06:01:52;;;;;;;18.73;12.53;;;;;;;12.96;74.34;98507.95;1761800;81;21118;-76
2021/05/31 06:04:18;;;;;;;23.50;13.08;;;;;;;13.14;76.39;98503.17;1780497;79;20964;-76
2021/05/31 06:06:45;;;;;;;18.77;12.33;;;;;;;13.31;75.29;98511.52;1761670;81;20913;-76
2021/05/31 06:09:12;;;;;;;18.75;13.18;;;;;;;13.24;74.80;98514.03;1731200;80;21078;-76
2021/05/31 06:11:39;;;;;;;15.10;11.28;;;;;;;13.22;72.82;98518.12;1736051;81;21472;-76
2021/05/31 06:14:05;;;;;;;19.45;13.43;;;;;;;13.45;74.54;98511.94;1780141;79;21239;-76
2021/05/31 06:16:31;;;;;;;17.80;13.00;;;;;;;13.68;74.67;98514.45;1761608;81;21072;-76
2021/05/31 06:18:57;;;;;;;16.87;12.13;;;;;;;14.00;74.12;98510.27;1755761;80;20936;-76
2021/05/31 06:21:23;;;;;;;17.57;11.95;;;;;;;13.96;73.62;98504.61;1759761;80;20886;-76
2021/05/31 06:23:49;;;;;;;18.50;12.88;;;;;;;14.02;73.60;98512.19;1732044;81;20910;-76
2021/05/31 06:26:15;;;;;;;18.95;12.63;;;;;;;14.25;73.07;98508.61;1731405;80;21119;-76
2021/05/31 06:28:42;;;;;;;17.85;12.30;;;;;;;14.43;71.03;98507.02;1784687;79;20971;-76
2021/05/31 06:31:07;;;;;;;15.15;12.18;;;;;;;14.54;72.20;98507.20;1784726;80;21494;-76
2021/05/31 06:33:34;;;;;;;18.75;12.55;;;;;;;14.82;71.04;98506.80;1784727;79;20849;-76
2021/05/31 06:36:04;;;;;;;20.55;13.10;;;;;;;14.88;69.34;98504.25;1756240;80;20915;-76
2021/05/31 06:38:27;;;;;;;14.23;11.88;;;;;;;14.92;68.44;98498.45;1784305;79;21258;-76
2021/05/31 06:40:53;;;;;;;18.32;10.82;;;;;;;15.13;70.34;98499.52;1784617;80;20983;-76
2021/05/31 06:43:19;;;;;;;15.72;11.93;;;;;;;15.31;69.72;98501.39;1785152;79;20939;-76
2021/05/31 06:45:45;;;;;;;15.28;10.98;;;;;;;15.24;68.75;98501.77;1784762;80;20951;-76
2021/05/31 06:48:11;;;;;;;18.00;12.47;;;;;;;15.34;66.80;98501.34;1756365;80;20840;-76
2021/05/31 06:50:37;;;;;;;12.82;9.65;;;;;;;15.17;68.10;98503.25;1784623;80;20949;-76
2021/05/31 06:53:03;;;;;;;15.72;11.08;;;;;;;14.75;66.69;98503.61;1784682;79;20872;-76
2021/05/31 06:55:33;;;;;;;15.85;11.88;;;;;;;14.69;67.79;98507.52;1784791;80;20848;-76
2021/05/31 06:57:59;;;;;;;21.97;12.45;;;;;;;14.60;67.36;98495.64;1784599;79;20975;-75
2021/05/31 07:00:26;;;;;;;15.48;12.05;;;;;;;14.54;65.29;98505.83;1785025;80;20942;-75
2021/05/31 07:02:52;;;;;;;15.05;10.28;;;;;;;14.79;68.06;98497.84;1785117;79;21004;-75
2021/05/31 07:05:18;;;;;;;24.57;11.70;;;;;;;14.78;64.70;98500.84;1784665;80;20919;-76
2021/05/31 07:07:44;;;;;;;17.10;11.88;;;;;;;15.04;67.24;98495.28;1784721;79;21773;-75
2021/05/31 07:10:12;;;;;;;14.38;11.25;;;;;;;15.38;66.61;98494.16;1784629;80;21431;-75
2021/05/31 07:12:38;;;;;;;15.80;10.80;;;;;;;15.61;63.91;98486.97;1784869;79;21344;-75
2021/05/31 07:15:06;;;;;;;12.25;8.80;;;;;;;16.04;65.85;98492.97;1756450;80;21052;-75
2021/05/31 07:17:35;;;;;;;13.03;9.38;;;;;;;16.16;64.54;98482.91;1784532;79;20939;-75
2021/05/31 07:20:10;;;;;;;15.58;10.75;;;;;;;16.18;63.92;98488.88;1754851;80;20963;-76
2021/05/31 07:22:36;;;;;;;14.38;10.20;;;;;;;15.82;63.47;98487.41;1761755;80;21379;-76
2021/05/31 07:25:05;;;;;;;14.95;9.95;;;;;;;15.60;63.17;98495.69;1788359;80;21486;-76
2021/05/31 07:27:31;;;;;;;14.98;10.82;;;;;;;15.77;63.67;98483.65;1764122;80;21654;-76
2021/05/31 07:29:57;;;;;;;14.25;9.53;;;;;;;16.08;63.86;98487.97;1788193;80;20969;-76
2021/05/31 07:32:23;;;;;;;12.18;10.03;;;;;;;16.86;61.85;98485.23;1788529;78;20943;-76
2021/05/31 07:34:49;;;;;;;14.75;9.10;;;;;;;17.38;61.85;98482.87;1788240;80;20943;-76
2021/05/31 07:37:15;;;;;;;13.22;9.65;;;;;;;17.73;56.86;98479.22;1788332;78;21478;-76
2021/05/31 07:39:41;;;;;;;12.03;9.15;;;;;;;17.56;56.74;98485.14;1788374;80;21036;-76
2021/05/31 07:42:07;;;;;;;15.53;9.35;;;;;;;17.33;58.52;98479.69;1788132;79;20868;-76
2021/05/31 07:44:33;;;;;;;15.25;10.75;;;;;;;17.38;53.94;98488.34;1764020;80;21007;-76
2021/05/31 07:47:00;;;;;;;14.70;9.40;;;;;;;17.76;57.73;98477.78;1788191;80;21550;-76
2021/05/31 07:49:26;;;;;;;13.22;9.48;;;;;;;17.97;57.74;98478.05;1788479;80;21347;-76
2021/05/31 07:51:54;;;;;;;12.85;9.83;;;;;;;17.81;52.43;98475.47;1788335;80;21722;-76
2021/05/31 07:54:21;;;;;;;10.55;8.20;;;;;;;17.88;55.65;98466.23;1788465;78;21026;-76
2021/05/31 07:56:47;;;;;;;11.90;8.38;;;;;;;18.03;52.06;98469.90;1788287;80;20980;-76
2021/05/31 07:59:13;;;;;;;16.25;7.75;;;;;;;17.87;55.06;98468.17;1788197;78;20947;-76
2021/05/31 08:01:39;;;;;;;9.13;7.40;;;;;;;17.38;52.70;98471.35;1788428;80;21066;-76
2021/05/31 08:04:06;;;;;;;8.08;6.58;;;;;;;16.88;54.47;98467.38;1788207;78;20927;-76
2021/05/31 08:06:34;;;;;;;8.13;6.70;;;;;;;16.64;54.99;98463.52;1788373;80;20959;-76
2021/05/31 08:09:01;;;;;;;13.33;7.57;;;;;;;16.93;53.35;98468.39;1787771;78;21241;-76
2021/05/31 08:11:27;;;;;;;9.58;6.83;;;;;;;17.26;50.61;98463.44;1788706;80;20974;-76
2021/05/31 08:13:53;;;;;;;8.95;6.90;;;;;;;17.91;50.85;98460.11;1788164;78;21022;-76
2021/05/31 08:16:20;;;;;;;12.07;8.53;;;;;;;18.52;50.37;98461.06;1788398;80;21013;-76
2021/05/31 08:18:46;;;;;;;12.85;7.95;;;;;;;19.29;50.19;98455.34;1788115;78;20959;-76
2021/05/31 08:21:12;;;;;;;11.40;7.15;;;;;;;18.58;48.08;98450.19;1788353;80;20926;-76
2021/05/31 08:23:38;;;;;;;9.78;7.30;;;;;;;19.19;49.84;98457.87;1756894;80;20935;-76
2021/05/31 08:26:04;;;;;;;9.68;7.35;;;;;;;18.63;48.65;98456.91;1784719;80;20988;-76
2021/05/31 08:28:30;;;;;;;9.25;6.42;;;;;;;18.25;49.98;98451.98;1784546;79;21377;-76
2021/05/31 08:30:56;;;;;;;10.38;6.60;;;;;;;17.53;49.30;98453.72;1784758;80;20966;-76
2021/05/31 08:33:22;;;;;;;8.60;6.45;;;;;;;17.37;50.66;98451.94;1784703;79;21524;-77
2021/05/31 08:35:48;;;;;;;8.65;7.15;;;;;;;17.27;51.14;98450.02;1784970;80;20860;-76
2021/05/31 08:38:15;;;;;;;12.03;7.20;;;;;;;17.18;51.73;98439.83;1784877;79;20954;-76
2021/05/31 08:40:41;;;;;;;10.10;7.70;;;;;;;17.12;52.47;98439.70;1784703;80;21809;-76
2021/05/31 08:43:07;;;;;;;11.48;7.90;;;;;;;16.84;52.88;98436.84;1784669;79;21473;-76
2021/05/31 08:45:37;;;;;;;9.90;8.03;;;;;;;16.25;54.10;98442.80;1784754;80;20951;-75
2021/05/31 08:48:01;;;;;;;10.18;8.48;;;;;;;15.87;54.24;98437.55;1756716;80;21098;-76
2021/05/31 08:50:30;;;;;;;9.75;7.60;;;;;;;15.99;55.25;98441.97;1784776;80;21458;-76
2021/05/31 08:52:56;;;;;;;10.88;8.35;;;;;;;15.88;56.32;98443.27;1784833;79;21517;-76
2021/05/31 08:55:24;;;;;;;12.10;8.60;;;;;;;15.66;56.63;98441.25;1784700;80;20952;-76
2021/05/31 08:57:50;;;;;;;12.40;8.93;;;;;;;15.31;57.75;98448.16;1784823;79;21014;-76
2021/05/31 09:00:20;;;;;;;11.43;9.25;;;;;;;14.98;58.65;98446.53;1784772;80;20946;-76
2021/05/31 09:02:46;;;;;;;13.28;9.18;;;;;;;14.92;60.03;98437.61;1783697;79;20959;-76
2021/05/31 09:05:12;;;;;;;14.45;10.48;;;;;;;14.77;59.42;98437.29;1784753;80;21687;-76
2021/05/31 09:07:38;;;;;;;13.58;10.93;;;;;;;14.92;59.03;98432.96;1784599;79;20860;-76
2021/05/31 09:10:07;;;;;;;15.18;9.15;;;;;;;14.92;58.96;98433.52;1784849;80;20896;-76
2021/05/31 09:12:35;;;;;;;10.60;9.38;;;;;;;15.09;59.23;98435.14;1756900;80;21400;-76
2021/05/31 09:15:08;;;;;;;12.00;8.70;;;;;;;15.46;58.79;98430.66;1785172;80;20994;-76
2021/05/31 09:17:36;;;;;;;11.85;8.13;;;;;;;18.06;54.15;98430.09;1784802;79;21352;-76
2021/05/31 09:20:04;;;;;;;9.78;8.05;;;;;;;20.28;51.30;98418.26;1784754;80;20924;-76
2021/05/31 09:22:30;;;;;;;10.13;7.33;;;;;;;21.78;44.34;98415.42;1783556;79;20940;-76
2021/05/31 09:25:01;;;;;;;11.80;8.53;;;;;;;22.95;44.41;98407.82;1780465;80;20979;-76
2021/05/31 09:27:28;;;;;;;9.10;8.00;;;;;;;22.65;39.35;98406.75;1780253;79;21083;-76
2021/05/31 09:30:01;;;;;;;9.75;8.20;;;;;;;22.06;41.10;98401.77;1780459;80;21271;-76
2021/05/31 09:32:28;;;;;;;10.68;7.75;;;;;;;20.81;42.40;98402.17;1779441;79;21142;-76
2021/05/31 09:35:04;;;;;;;10.72;6.92;;;;;;;18.31;47.33;98421.11;1780454;80;21030;-76
2021/05/31 09:37:31;;;;;;;13.48;5.20;;;;;;;17.33;48.94;98419.99;1780757;79;20990;-76
2021/05/31 09:40:05;;;;;;;9.15;3.85;;;;;;;15.89;51.89;98431.78;1780271;80;21015;-76
2021/05/31 09:42:32;;;;;;;6.03;3.72;;;;;;;15.58;52.03;98427.45;1780269;79;21411;-76
2021/05/31 09:45:09;;;;;;;6.15;4.53;;;;;;;14.74;52.35;98432.44;1780274;80;21039;-76
2021/05/31 09:47:36;;;;;;;5.00;4.22;;;;;;;14.58;53.47;98428.32;1780263;79;20935;-76
2021/05/31 09:50:06;;;;;;;8.18;4.20;;;;;;;14.00;55.58;98437.52;1780368;80;21483;-76
2021/05/31 09:52:33;;;;;;;5.55;3.50;;;;;;;13.81;56.78;98440.21;1780500;79;20928;-75
2021/05/31 09:55:04;;;;;;;5.75;4.10;;;;;;;13.91;56.36;98443.91;1780212;80;21178;-75
2021/05/31 09:57:34;;;;;;;6.80;3.42;;;;;;;13.64;58.64;98447.22;1779193;79;21384;-76
2021/05/31 10:00:12;;;;;;;7.25;2.98;;;;;;;13.36;61.32;98444.25;1780213;80;20940;-76
2021/05/31 10:02:53;;;;;;;5.80;3.77;;;;;;;13.35;59.29;98444.54;1780382;79;20909;-76
2021/05/31 10:05:38;;;;;;;5.80;3.50;;;;;;;13.45;59.23;98436.27;1779718;80;21359;-75
2021/05/31 10:10:31;;;;;;;11.50;4.40;;;;;;;13.64;59.38;98422.72;1780342;80;21087;-75
2021/05/31 10:12:59;;;;;;;5.20;3.52;;;;;;;13.85;59.60;98416.50;1761742;81;20906;-75
2021/05/31 10:15:28;;;;;;;5.50;4.50;;;;;;;14.09;59.77;98424.06;1779849;80;20896;-76
2021/05/31 10:17:56;;;;;;;;;;;;;;;14.10;63.90;98418.34;1764305;81;21048;-76
2021/05/31 10:20:23;;;;;;;5.80;3.25;;;;;;;14.01;64.21;98413.26;1759416;81;21101;-76
2021/05/31 10:22:49;;;;;;;5.97;3.33;;;;;;;14.08;62.70;98410.98;1760913;80;20949;-76
2021/05/31 10:25:16;;;;;;;4.80;3.55;;;;;;;14.32;60.72;98416.95;1759480;81;20850;-76
2021/05/31 10:27:43;;;;;;;5.22;3.75;;;;;;;14.66;59.01;98412.09;1759213;81;21484;-76
2021/05/31 10:30:11;;;;;;;7.12;3.45;;;;;;;14.89;57.78;98402.19;1759251;81;20965;-76
2021/05/31 10:32:37;;;;;;;7.42;2.95;;;;;;;15.58;57.31;98387.86;1759447;81;21374;-76
2021/05/31 10:35:20;;;;;;;4.40;2.75;;;;;;;16.18;53.34;98386.36;1759213;81;20850;-76
2021/05/31 10:37:57;;;;;;;5.72;3.12;;;;;;;16.53;54.90;98392.94;1759225;81;21464;-76
2021/05/31 10:40:34;;;;;;;4.53;2.98;;;;;;;17.77;51.53;98384.83;1759358;81;21028;-75
2021/05/31 10:43:05;;;;;;;5.25;3.33;;;;;;;19.56;48.67;98383.52;1759241;81;21413;-76
2021/05/31 10:45:31;;;;;;;6.42;2.80;;;;;;;22.37;42.33;98375.52;1734614;81;21110;-76
2021/05/31 10:48:10;;;;;;;6.45;2.77;;;;;;;24.41;36.35;98368.64;1759299;81;20966;-76
2021/05/31 10:50:47;;;;;;;;;;;;;;;25.20;36.09;98371.05;1761884;81;20930;-76
2021/05/31 10:56:04;;;;;;;6.85;3.45;;;;;;;25.98;37.02;98361.89;1777764;80;21027;-77
2021/05/31 10:58:37;;;;;;;4.85;2.72;;;;;;;27.77;33.44;98356.75;1777549;79;20949;-77
2021/05/31 11:01:08;;;;;;;6.20;3.25;;;;;;;29.26;30.17;98355.94;1753282;80;21499;-76
2021/05/31 11:04:03;;;;;;;5.97;3.37;;;;;;;26.95;31.91;98352.31;1753601;80;20968;-76
2021/05/31 11:06:36;;;;;;;5.45;3.60;;;;;;;24.24;34.19;98353.22;1751995;80;20872;-76
2021/05/31 11:09:09;;;;;;;3.65;3.08;;;;;;;25.43;32.58;98347.50;1772425;79;20983;-76
2021/05/31 11:11:40;;;;;;;5.33;3.40;;;;;;;26.53;30.51;98349.23;1777519;80;21131;-75
2021/05/31 11:14:07;;;;;;;6.97;3.85;;;;;;;25.73;29.21;98344.88;1777477;79;21503;-76
2021/05/31 11:16:39;;;;;;;6.85;3.75;;;;;;;25.08;30.66;98345.69;1753433;80;20999;-77
2021/05/31 11:19:06;;;;;;;7.58;3.75;;;;;;;23.65;34.12;98363.89;1775329;79;21000;-77
2021/05/31 11:21:40;;;;;;;6.35;3.55;;;;;;;21.32;35.98;98369.19;1777427;80;20980;-77
2021/05/31 11:24:10;;;;;;;6.78;3.65;;;;;;;20.40;38.00;98365.80;1777388;79;21348;-76
2021/05/31 11:26:39;;;;;;;4.75;3.75;;;;;;;19.39;41.10;98369.25;1777385;80;20828;-76
2021/05/31 11:29:07;;;;;;;6.78;4.30;;;;;;;18.71;42.81;98375.13;1753541;80;20908;-76
2021/05/31 11:31:33;;;;;;;7.65;4.62;;;;;;;17.70;45.19;98372.98;1777462;80;21043;-76
2021/05/31 11:33:59;;;;;;;5.12;3.58;;;;;;;17.55;46.57;98369.84;1777573;79;21372;-76
2021/05/31 11:36:30;;;;;;;8.58;4.35;;;;;;;17.11;46.17;98368.83;1753726;80;21104;-76
2021/05/31 11:38:56;;;;;;;5.67;3.17;;;;;;;17.23;45.50;98364.13;1777431;79;20844;-75
2021/05/31 11:41:35;;;;;;;8.30;4.28;;;;;;;17.93;44.03;98362.71;1777582;80;20912;-75
2021/05/31 11:44:03;;;;;;;11.03;7.25;;;;;;;17.90;44.45;98360.62;1777413;79;21033;-76
2021/05/31 11:46:29;;;;;;;6.65;4.58;;;;;;;19.15;41.61;98365.71;1777835;80;20880;-76
2021/05/31 11:49:06;;;;;;;5.17;3.47;;;;;;;21.60;38.90;98357.50;1777615;79;21016;-76
2021/05/31 11:51:32;;;;;;;4.77;3.80;;;;;;;23.33;35.43;98354.77;1755964;80;21455;-75